Overton, Nevada Weather observations

Data are for observation ending at time listed.
 Day   Time    Ave.   Ave.  Ave.  Vector   Max.   Stn.    Total    Solar   Ave.  
  of    of     Air    Rel.  Wind   Wind    Wind   Baro.  Precip.   Rad.    Soil  
Year   Day     Temp.  Hum.  Speed  Dir.    Gust   Pres.                    Temp. 
2026   (PST)    F      %     mph   deg.    mph     mb.     in.     W/m2     F   
------------------------------------------------------------------------------
 242    0:40   92.5    21    2.8    84      4.5   962.0    0.00       0    97.2
 242    0:50   91.2    22    1.6    93      3.1   961.8    0.00       0    96.8
 242    1:00   90.0    23    0.8    28      1.8   961.7    0.00       0    96.1
 242    1:10   88.8    25    0.5    40      1.5   961.6    0.00       0    95.6
 242    1:20   87.5    26    0.3    57      2.6   961.6    0.00       0    95.1
 242    1:30   87.7    25    1.8    80      3.4   961.6    0.00       0    95.1
 242    1:40   87.5    26    1.1    73      2.0   961.5    0.00       0    94.7
 242    1:50   88.0    25    1.7   110      3.4   961.6    0.00       0    94.8
 242    2:00   88.6    23    2.3   105      5.0   961.6    0.00       0    94.6
 242    2:10   88.9    23    1.7   112      3.6   961.7    0.00       0    94.5
 242    2:20   89.0    23    1.9   144      3.9   961.8    0.00       0    94.6
 242    2:30   88.8    23    1.8   119      3.9   961.8    0.00       0    94.3
 242    2:40   89.0    23    1.7   122      4.2   961.8    0.00       0    94.2
 242    2:50   89.0    24    2.7   125      5.0   961.8    0.00       0    94.1
 242    3:00   88.6    24    2.4   110      4.0   961.9    0.00       0    93.7
 242    3:10   87.7    26    2.7    97      5.0   961.9    0.00       0    93.4
 242    3:20   87.3    26    3.8    79      5.5   961.9    0.00       0    93.0
 242    3:30   87.4    26    3.3    78      5.5   962.0    0.00       0    92.9
 242    3:40   87.6    26    2.4    90      5.8   962.0    0.00       0    92.7
 242    3:50   87.8    26    1.6    87      4.7   962.0    0.00       0    92.6
 242    4:00   86.7    28    2.8    90      5.3   962.1    0.00       0    92.3
 242    4:10   87.3    27    1.1   126      3.4   962.3    0.00       0    92.3
 242    4:20   86.7    28    2.9    72      5.4   962.5    0.00       0    92.0
 242    4:30   88.1    27    3.2    74      5.2   962.6    0.00       0    92.3
 242    4:40   87.9    28    2.0    82      3.7   962.8    0.00       0    92.1
 242    4:50   87.3    28    3.4    80      5.3   962.9    0.00       0    92.0
 242    5:00   86.9    29    3.8    85      5.4   962.9    0.00       0    91.9
 242    5:10   87.2    29    2.5   101      4.9   963.0    0.00       6    92.0
 242    5:20   87.7    28    1.4   124      2.9   963.1    0.00      15    92.5
 242    5:30   88.6    27    1.7   131      4.5   963.2    0.00      24    92.8
 242    5:40   89.7    26    2.5   126      5.2   963.3    0.00      53    93.7
 242    5:50   89.9    25    2.8   157      4.8   963.4    0.00      79    95.4
 242    6:00   90.0    24    3.0   158      5.2   963.7    0.00      46    94.8
 242    6:10   89.6    26    2.2   102      5.1   963.8    0.00      53    94.0
 242    6:20   88.4    27    3.7    97      6.5   963.8    0.00      80    93.7
 242    6:30   88.8    27    3.0   101      8.8   963.8    0.00     100    94.2
 242    6:40   89.8    26    4.0   123      8.9   963.9    0.00     108    94.7
 242    6:50   91.7    24    2.4   146      7.0   964.1    0.00     132    95.9
 242    7:00   92.1    24    3.3   139      7.3   964.3    0.00     153    96.8
 242    7:10   92.2    24    4.2   144     10.8   964.3    0.00     184    97.8
 242    7:20   93.0    23    5.3   146     10.7   964.5    0.00     402    102.8
 242    7:30   93.5    23    6.0   158     11.1   964.7    0.00     448    105.0
 242    7:40   94.6    21    5.9   154     13.0   965.0    0.00     502    107.2
 242    7:50   95.1    21    7.2   157     13.3   965.2    0.00     512    108.4
 242    8:00   96.0    20    5.9   161     12.1   965.4    0.00     567    110.2
 242    8:10   95.5    20    6.4   151     11.8   965.6    0.00     247    106.7
 242    8:20   95.2    20    6.5   148     13.3   965.6    0.00     250    105.8
 242    8:30   95.1    20    5.9   143     16.4   965.5    0.00     274    104.6
 242    8:40   96.5    18    6.1   151     12.6   965.4    0.00     635    109.3
 242    8:50   97.3    17    7.3   161     13.2   965.5    0.00     647    111.4
 242    9:00   97.9    17    5.8   152     15.5   965.7    0.00     530    111.6
 242    9:10   97.1    17    6.2   144     13.4   965.7    0.00     313    109.1
 242    9:20   97.3    17    6.9   164     12.6   965.8    0.00     693    111.2
 242    9:30   98.9    16    6.9   144     15.0   965.8    0.00     708    113.5
 242    9:40   98.7    16    7.8   151     16.1   965.9    0.00     690    113.7
 242    9:50   98.3    15    7.5   144     15.5   966.0    0.00     457    111.6
 242   10:00   97.5    15    8.4   157     16.7   966.0    0.00     420    110.6
 242   10:10   97.8    15    7.3   168     16.8   965.9    0.00     545    111.5
 242   10:20   98.9    14    7.5   155     15.5   965.8    0.00     915    114.0
 242   10:30   99.7    14    7.0   159     17.5   965.8    0.00     530    114.1
 242   10:40   99.0    14    7.2   171     13.9   965.8    0.00     282    111.5
 242   10:50   99.0    13    9.9   176     17.1   965.7    0.00     562    111.4
 242   11:00  100.3    13   10.7   181     17.5   965.6    0.00     918    113.9
 242   11:10  101.6    13    9.2   197     19.1   965.6    0.00    1184    116.8
 242   11:20  102.1    13    9.5   185     20.2   965.8    0.00    1150    118.3
 242   11:30  101.7    13    9.2   182     18.6   965.8    0.00     769    118.5
 242   11:40  101.0    13   10.2   189     19.0   965.7    0.00     624    117.4
 242   11:50  100.9    13    8.1   172     17.5   965.6    0.00     471    116.9
 242   12:00  100.8    13   10.4   184     21.2   965.5    0.00     305    115.6
 242   12:10  100.3    13   11.2   191     23.1   965.4    0.00     301    114.4
 242   12:20  100.2    13    9.0   195     14.5   965.3    0.00     283    113.5
 242   12:30  100.0    13    8.8   202     14.4   965.1    0.00     268    112.9
 242   12:40   99.9    14    8.1   197     13.3   965.1    0.00     272    112.3
 242   12:50   99.8    14    7.0   196     14.5   964.9    0.00     241    112.0
 242   13:00   99.8    14    8.8   196     15.5   964.7    0.00     254    111.5
 242   13:10  100.3    14    5.7   175     10.3   964.6    0.00     256    111.5
 242   13:20  100.4    13    5.9   222     11.8   964.5    0.00     238    111.0
 242   13:30  100.6    13    6.0   215     10.6   964.2    0.00     261    110.9
 242   13:40  101.0    12    7.0   221     13.5   964.1    0.00     294    110.9
 242   13:50  101.5    12    7.5   214     12.1   963.9    0.00     378    111.2
 242   14:00  101.4    12    7.5   199     13.2   963.8    0.00     501    111.4
 242   14:10  102.4    12    7.0   219     12.8   963.6    0.00     582    111.4
 242   14:20  102.4    12    5.8   228     12.4   963.5    0.00     347    110.7
 242   14:30  102.6    12   10.3   178     19.9   963.4    0.00     348    110.6
 242   14:40  102.9    12    6.1   191     10.5   963.3    0.00     297    110.3
 242   14:50  102.8    12    8.3   178     14.8   963.1    0.00     306    110.0
 242   15:00  102.9    12    6.1   194     12.7   963.1    0.00     331    109.9
 242   15:10  103.2    12    6.7   199     13.5   963.0    0.00     327    109.9
 242   15:20  103.5    12    7.1   186     15.4   962.8    0.00     322    109.7
 242   15:30  104.0    12    6.3   165     13.9   962.8    0.00     446    109.8
 242   15:40  103.7    12    9.2   183     17.2   962.9    0.00     317    109.5
 242   15:50  103.9    12    9.8   179     16.7   962.9    0.00     302    109.3
 242   16:00  103.7    11    6.4   188     13.7   962.9    0.00     176    109.1
 242   16:10  103.8    11    6.0   242     12.1   962.8    0.00     202    108.4
 242   16:20  103.6    11    7.8   244     14.8   962.6    0.00     338    108.1
 242   16:30  103.7    11   10.4   234     20.2   962.5    0.00     291    108.1
 242   16:40  103.3    11    8.5   234     17.5   962.5    0.00     177    107.6
 242   16:50  102.9    11    7.2   229     15.0   962.5    0.00     186    107.2
 242   17:00  103.2    11    8.1   237     13.8   962.4    0.00     127    106.8
 242   17:10  102.7    11    8.3   233     14.5   962.3    0.00      90    106.3
 242   17:20  102.2    11    9.1   242     14.2   962.2    0.00      77    105.7
 242   17:30  102.1    11    6.3   229     10.7   962.1    0.00      65    105.4
 242   17:40  101.7    11    5.8   220      9.4   962.1    0.00      45    104.9
 242   17:50  101.3    11    6.4   233     12.0   962.0    0.00      29    104.3
 242   18:00  100.9    11    5.9   228     11.6   962.0    0.00      17    103.8
 242   18:10  100.5    11    4.8   224      8.0   962.0    0.00       6    103.2
 242   18:20  100.3    11    5.1   221      9.9   962.0    0.00       3    102.8
 242   18:30   99.8    11    3.4   223      6.6   962.0    0.00       1    102.2
 242   18:40   99.3    11    3.6   233      6.6   961.9    0.00       0    101.8
 242   18:50   99.0    11    4.3   234      8.2   961.9    0.00       0    101.4
 242   19:00   98.7    12    3.4   230      6.6   962.0    0.00       0    100.9
 242   19:10   98.1    12    3.5   230      6.9   962.0    0.00       0    100.5
 242   19:20   97.8    12    3.1   244      6.9   962.1    0.00       0    100.1
 242   19:30   97.7    12    1.8   234      6.0   962.2    0.00       0    99.8
 242   19:40   94.4    14    2.1    73      4.2   962.5    0.00       0    98.8
 242   19:50   91.7    16    2.0     8      3.5   962.5    0.00       0    97.6
 242   20:00   89.9    18    0.7   334      2.0   962.5    0.00       0    97.1
 242   20:10   89.1    18    2.5    25      5.0   962.5    0.00       0    96.4
 242   20:20   89.3    17    1.3   347      3.4   962.4    0.00       0    96.4
 242   20:30   90.7    16    1.2   241      3.8   962.4    0.00       0    96.4
 242   20:40   90.2    17    1.9   160      3.1   962.4    0.00       0    96.2
 242   20:50   89.1    18    1.1   149      2.1   962.5    0.00       0    95.4
 242   21:00   87.1    20    1.3   146      2.9   962.5    0.00       0    94.7
 242   21:10   87.3    19    3.0    92      7.7   962.3    0.00       0    94.4
 242   21:20   88.2    18    1.5    71      3.9   962.3    0.00       0    94.3
 242   21:30   85.8    20    3.0   354      5.5   962.2    0.00       0    93.2
 242   21:40   84.7    20    3.0   340      4.7   962.2    0.00       0    92.8
 242   21:50   85.0    20    1.4   341      3.6   962.3    0.00       0    92.8
 242   22:00   85.4    19    2.2   185      3.9   962.3    0.00       0    92.9
 242   22:10   86.6    18    1.8   143      3.6   962.2    0.00       0    92.9
 242   22:20   87.0    18    1.3   128      3.1   962.3    0.00       0    92.3
 242   22:30   82.9    23    2.2     2      3.1   962.3    0.00       0    90.9
 242   22:40   82.4    24    1.5    54      2.4   962.3    0.00       0    91.1
 242   22:50   81.4    24    2.0   317      3.9   962.2    0.00       0    90.2
 242   23:00   79.2    28    1.3   358      3.4   962.2    0.00       0    89.3
 242   23:10   79.1    28    1.4   322      2.5   962.1    0.00       0    89.3
 242   23:20   80.7    28    1.0   148      2.3   962.1    0.00       0    90.0
 242   23:30   82.8    29    1.2   224      2.8   962.1    0.00       0    90.3
 242   23:40   82.5    28    1.6   244      3.4   962.1    0.00       0    89.5
 242   23:50   78.8    33    2.2   347      3.7   962.1    0.00       0    88.4
 243    0:00   77.8    32    2.2   340      3.5   962.2    0.00       0    88.3
 243    0:10   79.8    29    1.6   290      3.8   962.1    0.00       0    88.7
 243    0:20   78.5    30    3.3   345      4.7   962.1    0.00       0    87.6
 243    0:30   78.3    29    2.5   312      4.3   962.2    0.00       0    87.8

Return to Overton, Nevada graphs page.


Western Regional Climate Center,wrcc@dri.edu